sensor_id;sensor_type;location;lat;lon;timestamp;P1;durP1;ratioP1;P2;durP2;ratioP2
3054;SDS011;1537;52.018;8.542;2023-09-30T00:01:59;12.80;;;6.17;;
3054;SDS011;1537;52.018;8.542;2023-09-30T00:05:23;12.33;;;5.20;;
3054;SDS011;1537;52.018;8.542;2023-09-30T00:08:47;13.50;;;6.57;;
3054;SDS011;1537;52.018;8.542;2023-09-30T00:12:13;13.83;;;6.13;;
3054;SDS011;1537;52.018;8.542;2023-09-30T00:15:37;13.93;;;6.10;;
3054;SDS011;1537;52.018;8.542;2023-09-30T00:19:03;14.10;;;6.00;;
3054;SDS011;1537;52.018;8.542;2023-09-30T00:22:28;12.27;;;6.00;;
3054;SDS011;1537;52.018;8.542;2023-09-30T00:25:52;19.57;;;6.17;;
3054;SDS011;1537;52.018;8.542;2023-09-30T00:29:19;11.83;;;6.53;;
3054;SDS011;1537;52.018;8.542;2023-09-30T00:32:42;15.83;;;6.03;;
3054;SDS011;1537;52.018;8.542;2023-09-30T00:36:07;11.63;;;5.63;;
3054;SDS011;1537;52.018;8.542;2023-09-30T00:39:32;15.77;;;6.10;;
3054;SDS011;1537;52.018;8.542;2023-09-30T00:42:57;21.07;;;6.53;;
3054;SDS011;1537;52.018;8.542;2023-09-30T00:46:25;12.77;;;5.83;;
3054;SDS011;1537;52.018;8.542;2023-09-30T00:49:50;13.53;;;5.40;;
3054;SDS011;1537;52.018;8.542;2023-09-30T00:53:16;18.27;;;5.20;;
3054;SDS011;1537;52.018;8.542;2023-09-30T00:56:42;11.00;;;6.03;;
3054;SDS011;1537;52.018;8.542;2023-09-30T01:00:11;13.83;;;6.50;;
3054;SDS011;1537;52.018;8.542;2023-09-30T01:03:38;13.00;;;5.23;;
3054;SDS011;1537;52.018;8.542;2023-09-30T01:07:03;14.00;;;6.50;;
3054;SDS011;1537;52.018;8.542;2023-09-30T01:10:27;14.40;;;5.40;;
3054;SDS011;1537;52.018;8.542;2023-09-30T01:13:51;12.60;;;6.07;;
3054;SDS011;1537;52.018;8.542;2023-09-30T01:17:15;14.93;;;5.73;;
3054;SDS011;1537;52.018;8.542;2023-09-30T01:20:41;16.87;;;7.00;;
3054;SDS011;1537;52.018;8.542;2023-09-30T01:24:07;14.47;;;5.27;;
3054;SDS011;1537;52.018;8.542;2023-09-30T01:27:31;19.30;;;5.80;;
3054;SDS011;1537;52.018;8.542;2023-09-30T01:30:55;15.10;;;6.37;;
3054;SDS011;1537;52.018;8.542;2023-09-30T01:34:22;18.47;;;5.67;;
3054;SDS011;1537;52.018;8.542;2023-09-30T01:37:47;15.20;;;5.17;;
3054;SDS011;1537;52.018;8.542;2023-09-30T01:41:13;14.17;;;5.60;;
3054;SDS011;1537;52.018;8.542;2023-09-30T01:44:38;15.87;;;6.37;;
3054;SDS011;1537;52.018;8.542;2023-09-30T01:48:03;13.47;;;6.07;;
3054;SDS011;1537;52.018;8.542;2023-09-30T01:51:28;15.60;;;5.90;;
3054;SDS011;1537;52.018;8.542;2023-09-30T01:54:53;10.10;;;5.50;;
3054;SDS011;1537;52.018;8.542;2023-09-30T01:58:19;16.83;;;5.67;;
3054;SDS011;1537;52.018;8.542;2023-09-30T02:01:43;12.30;;;4.90;;
3054;SDS011;1537;52.018;8.542;2023-09-30T02:05:08;14.13;;;6.03;;
3054;SDS011;1537;52.018;8.542;2023-09-30T02:08:32;14.40;;;5.10;;
3054;SDS011;1537;52.018;8.542;2023-09-30T02:11:58;10.47;;;5.97;;
3054;SDS011;1537;52.018;8.542;2023-09-30T02:15:24;15.60;;;6.00;;
3054;SDS011;1537;52.018;8.542;2023-09-30T02:18:48;17.57;;;5.83;;
3054;SDS011;1537;52.018;8.542;2023-09-30T02:22:14;19.87;;;6.77;;
3054;SDS011;1537;52.018;8.542;2023-09-30T02:25:41;10.93;;;5.40;;
3054;SDS011;1537;52.018;8.542;2023-09-30T02:29:05;19.03;;;5.77;;
3054;SDS011;1537;52.018;8.542;2023-09-30T02:32:33;17.30;;;6.20;;
3054;SDS011;1537;52.018;8.542;2023-09-30T02:35:58;9.37;;;5.33;;
3054;SDS011;1537;52.018;8.542;2023-09-30T02:39:22;19.70;;;5.97;;
3054;SDS011;1537;52.018;8.542;2023-09-30T02:42:47;13.37;;;6.80;;
3054;SDS011;1537;52.018;8.542;2023-09-30T02:46:12;11.07;;;5.63;;
3054;SDS011;1537;52.018;8.542;2023-09-30T02:49:38;15.57;;;6.40;;
3054;SDS011;1537;52.018;8.542;2023-09-30T02:53:03;16.23;;;5.07;;
3054;SDS011;1537;52.018;8.542;2023-09-30T02:56:28;22.37;;;6.07;;
3054;SDS011;1537;52.018;8.542;2023-09-30T02:59:53;19.50;;;6.40;;
3054;SDS011;1537;52.018;8.542;2023-09-30T03:03:22;17.97;;;7.00;;
3054;SDS011;1537;52.018;8.542;2023-09-30T03:06:49;14.10;;;6.40;;
3054;SDS011;1537;52.018;8.542;2023-09-30T03:10:14;21.20;;;5.63;;
3054;SDS011;1537;52.018;8.542;2023-09-30T03:13:42;26.33;;;6.50;;
3054;SDS011;1537;52.018;8.542;2023-09-30T03:17:06;19.57;;;7.53;;
3054;SDS011;1537;52.018;8.542;2023-09-30T03:20:34;15.03;;;5.50;;
3054;SDS011;1537;52.018;8.542;2023-09-30T03:24:03;14.27;;;6.20;;
3054;SDS011;1537;52.018;8.542;2023-09-30T03:27:30;14.80;;;5.50;;
3054;SDS011;1537;52.018;8.542;2023-09-30T03:30:54;10.47;;;5.10;;
3054;SDS011;1537;52.018;8.542;2023-09-30T03:34:19;15.57;;;5.70;;
3054;SDS011;1537;52.018;8.542;2023-09-30T03:37:43;17.37;;;6.90;;
3054;SDS011;1537;52.018;8.542;2023-09-30T03:41:09;14.03;;;5.63;;
3054;SDS011;1537;52.018;8.542;2023-09-30T03:44:36;13.33;;;5.33;;
3054;SDS011;1537;52.018;8.542;2023-09-30T03:48:00;15.60;;;5.87;;
3054;SDS011;1537;52.018;8.542;2023-09-30T03:51:27;18.27;;;7.40;;
3054;SDS011;1537;52.018;8.542;2023-09-30T03:54:52;15.93;;;5.90;;
3054;SDS011;1537;52.018;8.542;2023-09-30T03:58:18;18.50;;;6.10;;
3054;SDS011;1537;52.018;8.542;2023-09-30T04:01:42;18.20;;;6.80;;
3054;SDS011;1537;52.018;8.542;2023-09-30T04:05:07;19.97;;;7.33;;
3054;SDS011;1537;52.018;8.542;2023-09-30T04:08:33;22.20;;;8.37;;
3054;SDS011;1537;52.018;8.542;2023-09-30T04:11:58;21.00;;;6.60;;
3054;SDS011;1537;52.018;8.542;2023-09-30T04:15:24;17.73;;;6.80;;
3054;SDS011;1537;52.018;8.542;2023-09-30T04:18:49;23.50;;;6.60;;
3054;SDS011;1537;52.018;8.542;2023-09-30T04:22:13;17.00;;;6.10;;
3054;SDS011;1537;52.018;8.542;2023-09-30T04:25:39;18.97;;;6.50;;
3054;SDS011;1537;52.018;8.542;2023-09-30T04:29:06;15.20;;;7.97;;
3054;SDS011;1537;52.018;8.542;2023-09-30T04:32:34;16.93;;;7.30;;
3054;SDS011;1537;52.018;8.542;2023-09-30T04:36:00;13.03;;;6.33;;
3054;SDS011;1537;52.018;8.542;2023-09-30T04:39:24;17.23;;;7.27;;
3054;SDS011;1537;52.018;8.542;2023-09-30T04:42:48;17.53;;;7.03;;
3054;SDS011;1537;52.018;8.542;2023-09-30T04:46:12;19.57;;;7.03;;
3054;SDS011;1537;52.018;8.542;2023-09-30T04:49:37;18.00;;;7.57;;
3054;SDS011;1537;52.018;8.542;2023-09-30T04:53:01;15.53;;;6.07;;
3054;SDS011;1537;52.018;8.542;2023-09-30T04:56:28;11.50;;;5.70;;
3054;SDS011;1537;52.018;8.542;2023-09-30T04:59:52;17.90;;;8.00;;
3054;SDS011;1537;52.018;8.542;2023-09-30T05:03:16;17.43;;;7.50;;
3054;SDS011;1537;52.018;8.542;2023-09-30T05:06:43;24.17;;;7.20;;
3054;SDS011;1537;52.018;8.542;2023-09-30T05:10:09;14.40;;;7.40;;
3054;SDS011;1537;52.018;8.542;2023-09-30T05:13:36;19.33;;;8.07;;
3054;SDS011;1537;52.018;8.542;2023-09-30T05:17:00;16.10;;;7.50;;
3054;SDS011;1537;52.018;8.542;2023-09-30T05:20:26;19.03;;;7.87;;
3054;SDS011;1537;52.018;8.542;2023-09-30T05:23:51;19.93;;;8.50;;
3054;SDS011;1537;52.018;8.542;2023-09-30T05:27:15;26.57;;;8.27;;
3054;SDS011;1537;52.018;8.542;2023-09-30T05:30:39;19.20;;;8.50;;
3054;SDS011;1537;52.018;8.542;2023-09-30T05:34:04;18.87;;;8.13;;
3054;SDS011;1537;52.018;8.542;2023-09-30T05:37:30;18.60;;;7.80;;
3054;SDS011;1537;52.018;8.542;2023-09-30T05:40:55;22.70;;;8.30;;
3054;SDS011;1537;52.018;8.542;2023-09-30T05:44:21;20.40;;;9.70;;
3054;SDS011;1537;52.018;8.542;2023-09-30T05:47:45;18.97;;;7.23;;
3054;SDS011;1537;52.018;8.542;2023-09-30T05:51:13;18.47;;;8.20;;
3054;SDS011;1537;52.018;8.542;2023-09-30T05:54:40;21.80;;;7.70;;
3054;SDS011;1537;52.018;8.542;2023-09-30T05:58:08;18.60;;;7.33;;
3054;SDS011;1537;52.018;8.542;2023-09-30T06:01:31;14.87;;;7.80;;
3054;SDS011;1537;52.018;8.542;2023-09-30T06:04:58;20.77;;;7.77;;
3054;SDS011;1537;52.018;8.542;2023-09-30T06:08:27;12.90;;;7.10;;
3054;SDS011;1537;52.018;8.542;2023-09-30T06:11:53;15.97;;;8.20;;
3054;SDS011;1537;52.018;8.542;2023-09-30T06:15:18;14.20;;;6.83;;
3054;SDS011;1537;52.018;8.542;2023-09-30T06:18:44;17.53;;;7.13;;
3054;SDS011;1537;52.018;8.542;2023-09-30T06:22:08;16.70;;;7.70;;
3054;SDS011;1537;52.018;8.542;2023-09-30T06:25:31;19.67;;;7.77;;
3054;SDS011;1537;52.018;8.542;2023-09-30T06:28:56;19.80;;;8.30;;
3054;SDS011;1537;52.018;8.542;2023-09-30T06:32:22;20.10;;;8.83;;
3054;SDS011;1537;52.018;8.542;2023-09-30T06:35:46;22.27;;;8.37;;
3054;SDS011;1537;52.018;8.542;2023-09-30T06:39:13;17.43;;;8.37;;
3054;SDS011;1537;52.018;8.542;2023-09-30T06:42:38;18.10;;;8.50;;
3054;SDS011;1537;52.018;8.542;2023-09-30T06:46:06;15.30;;;8.90;;
3054;SDS011;1537;52.018;8.542;2023-09-30T06:49:34;15.47;;;8.37;;
3054;SDS011;1537;52.018;8.542;2023-09-30T06:52:59;13.47;;;7.97;;
3054;SDS011;1537;52.018;8.542;2023-09-30T06:56:23;13.60;;;9.00;;
3054;SDS011;1537;52.018;8.542;2023-09-30T06:59:47;17.37;;;10.50;;
3054;SDS011;1537;52.018;8.542;2023-09-30T07:03:11;13.97;;;9.60;;
3054;SDS011;1537;52.018;8.542;2023-09-30T07:06:41;14.00;;;10.77;;
3054;SDS011;1537;52.018;8.542;2023-09-30T07:10:08;14.30;;;9.40;;
3054;SDS011;1537;52.018;8.542;2023-09-30T07:13:36;15.60;;;10.03;;
3054;SDS011;1537;52.018;8.542;2023-09-30T07:17:00;14.77;;;11.50;;
3054;SDS011;1537;52.018;8.542;2023-09-30T07:20:27;16.10;;;10.37;;
3054;SDS011;1537;52.018;8.542;2023-09-30T07:24:00;18.00;;;11.40;;
3054;SDS011;1537;52.018;8.542;2023-09-30T07:27:26;14.03;;;11.37;;
3054;SDS011;1537;52.018;8.542;2023-09-30T07:30:52;16.57;;;11.60;;
3054;SDS011;1537;52.018;8.542;2023-09-30T07:34:19;17.13;;;11.87;;
3054;SDS011;1537;52.018;8.542;2023-09-30T07:37:51;16.20;;;12.10;;
3054;SDS011;1537;52.018;8.542;2023-09-30T07:41:16;18.73;;;11.97;;
3054;SDS011;1537;52.018;8.542;2023-09-30T07:44:41;17.80;;;11.60;;
3054;SDS011;1537;52.018;8.542;2023-09-30T07:48:07;17.30;;;11.13;;
3054;SDS011;1537;52.018;8.542;2023-09-30T07:51:35;16.10;;;11.27;;
3054;SDS011;1537;52.018;8.542;2023-09-30T07:55:04;15.50;;;11.53;;
3054;SDS011;1537;52.018;8.542;2023-09-30T07:58:33;16.03;;;11.73;;
3054;SDS011;1537;52.018;8.542;2023-09-30T08:02:02;16.77;;;12.77;;
3054;SDS011;1537;52.018;8.542;2023-09-30T08:05:26;16.47;;;12.87;;
3054;SDS011;1537;52.018;8.542;2023-09-30T08:08:50;21.60;;;13.70;;
3054;SDS011;1537;52.018;8.542;2023-09-30T08:12:14;17.73;;;12.63;;
3054;SDS011;1537;52.018;8.542;2023-09-30T08:15:44;20.80;;;13.70;;
3054;SDS011;1537;52.018;8.542;2023-09-30T08:19:10;15.73;;;13.00;;
3054;SDS011;1537;52.018;8.542;2023-09-30T08:22:36;21.00;;;13.37;;
3054;SDS011;1537;52.018;8.542;2023-09-30T08:26:03;16.63;;;11.80;;
3054;SDS011;1537;52.018;8.542;2023-09-30T08:29:28;17.60;;;13.00;;
3054;SDS011;1537;52.018;8.542;2023-09-30T08:32:53;17.63;;;14.30;;
3054;SDS011;1537;52.018;8.542;2023-09-30T08:36:20;18.43;;;12.70;;
3054;SDS011;1537;52.018;8.542;2023-09-30T08:39:44;16.40;;;13.53;;
3054;SDS011;1537;52.018;8.542;2023-09-30T08:43:12;17.03;;;13.50;;
3054;SDS011;1537;52.018;8.542;2023-09-30T08:46:39;14.73;;;12.93;;
3054;SDS011;1537;52.018;8.542;2023-09-30T08:50:09;19.23;;;12.60;;
3054;SDS011;1537;52.018;8.542;2023-09-30T08:53:36;13.53;;;12.10;;
3054;SDS011;1537;52.018;8.542;2023-09-30T08:57:02;15.87;;;12.80;;
3054;SDS011;1537;52.018;8.542;2023-09-30T09:00:27;15.63;;;13.07;;
3054;SDS011;1537;52.018;8.542;2023-09-30T09:03:51;13.87;;;12.40;;
3054;SDS011;1537;52.018;8.542;2023-09-30T09:07:19;14.10;;;12.50;;
3054;SDS011;1537;52.018;8.542;2023-09-30T09:10:53;18.10;;;13.00;;
3054;SDS011;1537;52.018;8.542;2023-09-30T09:14:28;14.53;;;12.60;;
3054;SDS011;1537;52.018;8.542;2023-09-30T09:18:04;15.20;;;13.37;;
3054;SDS011;1537;52.018;8.542;2023-09-30T09:21:28;14.07;;;12.73;;
3054;SDS011;1537;52.018;8.542;2023-09-30T09:24:54;14.03;;;12.20;;
3054;SDS011;1537;52.018;8.542;2023-09-30T09:28:23;13.67;;;12.00;;
3054;SDS011;1537;52.018;8.542;2023-09-30T09:32:09;15.00;;;12.50;;
3054;SDS011;1537;52.018;8.542;2023-09-30T09:35:35;13.97;;;11.70;;
3054;SDS011;1537;52.018;8.542;2023-09-30T09:39:01;16.37;;;12.33;;
3054;SDS011;1537;52.018;8.542;2023-09-30T09:42:36;17.07;;;12.40;;
3054;SDS011;1537;52.018;8.542;2023-09-30T09:46:03;13.90;;;11.60;;
3054;SDS011;1537;52.018;8.542;2023-09-30T09:49:30;15.10;;;11.60;;
3054;SDS011;1537;52.018;8.542;2023-09-30T09:52:55;13.80;;;11.70;;
3054;SDS011;1537;52.018;8.542;2023-09-30T09:56:21;16.00;;;12.10;;
3054;SDS011;1537;52.018;8.542;2023-09-30T09:59:46;16.13;;;11.53;;
3054;SDS011;1537;52.018;8.542;2023-09-30T10:03:11;13.17;;;10.70;;
3054;SDS011;1537;52.018;8.542;2023-09-30T10:06:35;13.10;;;11.77;;
3054;SDS011;1537;52.018;8.542;2023-09-30T10:10:02;12.40;;;11.03;;
3054;SDS011;1537;52.018;8.542;2023-09-30T10:17:15;13.17;;;11.20;;
3054;SDS011;1537;52.018;8.542;2023-09-30T10:20:39;13.00;;;10.30;;
3054;SDS011;1537;52.018;8.542;2023-09-30T10:27:52;12.80;;;9.70;;
3054;SDS011;1537;52.018;8.542;2023-09-30T10:31:25;11.57;;;8.87;;
3054;SDS011;1537;52.018;8.542;2023-09-30T10:34:50;11.30;;;9.27;;
3054;SDS011;1537;52.018;8.542;2023-09-30T10:42:07;14.37;;;10.43;;
3054;SDS011;1537;52.018;8.542;2023-09-30T10:45:42;15.90;;;9.87;;
3054;SDS011;1537;52.018;8.542;2023-09-30T10:49:14;12.67;;;9.90;;
3054;SDS011;1537;52.018;8.542;2023-09-30T10:52:41;12.80;;;10.50;;
3054;SDS011;1537;52.018;8.542;2023-09-30T10:56:05;11.97;;;9.87;;
3054;SDS011;1537;52.018;8.542;2023-09-30T10:59:29;10.23;;;8.67;;
3054;SDS011;1537;52.018;8.542;2023-09-30T11:02:55;14.63;;;9.73;;
3054;SDS011;1537;52.018;8.542;2023-09-30T11:06:23;15.07;;;9.37;;
3054;SDS011;1537;52.018;8.542;2023-09-30T11:09:49;11.80;;;8.90;;
3054;SDS011;1537;52.018;8.542;2023-09-30T11:13:12;9.30;;;7.67;;
3054;SDS011;1537;52.018;8.542;2023-09-30T11:16:42;9.50;;;8.37;;
3054;SDS011;1537;52.018;8.542;2023-09-30T11:20:06;10.60;;;8.10;;
3054;SDS011;1537;52.018;8.542;2023-09-30T11:23:31;13.83;;;8.53;;
3054;SDS011;1537;52.018;8.542;2023-09-30T11:26:57;11.90;;;9.07;;
3054;SDS011;1537;52.018;8.542;2023-09-30T11:30:21;10.83;;;9.00;;
3054;SDS011;1537;52.018;8.542;2023-09-30T11:33:48;10.20;;;8.70;;
3054;SDS011;1537;52.018;8.542;2023-09-30T11:37:18;11.23;;;8.97;;
3054;SDS011;1537;52.018;8.542;2023-09-30T11:40:57;14.23;;;8.80;;
3054;SDS011;1537;52.018;8.542;2023-09-30T11:44:23;10.30;;;8.40;;
3054;SDS011;1537;52.018;8.542;2023-09-30T11:47:48;11.23;;;8.17;;
3054;SDS011;1537;52.018;8.542;2023-09-30T11:51:12;11.17;;;8.50;;
3054;SDS011;1537;52.018;8.542;2023-09-30T11:54:35;13.90;;;7.97;;
3054;SDS011;1537;52.018;8.542;2023-09-30T11:58:03;11.50;;;8.47;;
3054;SDS011;1537;52.018;8.542;2023-09-30T12:01:28;9.20;;;7.93;;
3054;SDS011;1537;52.018;8.542;2023-09-30T12:04:53;11.80;;;8.50;;
3054;SDS011;1537;52.018;8.542;2023-09-30T12:08:17;10.67;;;8.00;;
3054;SDS011;1537;52.018;8.542;2023-09-30T12:11:41;11.30;;;8.80;;
3054;SDS011;1537;52.018;8.542;2023-09-30T12:15:06;11.43;;;8.17;;
3054;SDS011;1537;52.018;8.542;2023-09-30T12:18:33;9.53;;;7.60;;
3054;SDS011;1537;52.018;8.542;2023-09-30T12:21:57;11.13;;;8.70;;
3054;SDS011;1537;52.018;8.542;2023-09-30T12:25:21;13.03;;;9.13;;
3054;SDS011;1537;52.018;8.542;2023-09-30T12:28:47;10.47;;;7.90;;
3054;SDS011;1537;52.018;8.542;2023-09-30T12:32:10;11.17;;;7.73;;
3054;SDS011;1537;52.018;8.542;2023-09-30T12:35:36;10.03;;;7.70;;
3054;SDS011;1537;52.018;8.542;2023-09-30T12:38:59;16.77;;;8.00;;
3054;SDS011;1537;52.018;8.542;2023-09-30T12:42:25;10.57;;;7.90;;
3054;SDS011;1537;52.018;8.542;2023-09-30T12:45:50;12.80;;;7.50;;
3054;SDS011;1537;52.018;8.542;2023-09-30T12:49:13;9.20;;;7.17;;
3054;SDS011;1537;52.018;8.542;2023-09-30T12:52:39;11.17;;;7.80;;
3054;SDS011;1537;52.018;8.542;2023-09-30T12:56:02;11.10;;;8.10;;
3054;SDS011;1537;52.018;8.542;2023-09-30T12:59:26;10.23;;;7.17;;
3054;SDS011;1537;52.018;8.542;2023-09-30T13:02:50;8.50;;;7.50;;
3054;SDS011;1537;52.018;8.542;2023-09-30T13:06:13;9.43;;;7.00;;
3054;SDS011;1537;52.018;8.542;2023-09-30T13:09:40;13.03;;;7.80;;
3054;SDS011;1537;52.018;8.542;2023-09-30T13:13:04;9.60;;;7.40;;
3054;SDS011;1537;52.018;8.542;2023-09-30T13:16:28;9.57;;;7.50;;
3054;SDS011;1537;52.018;8.542;2023-09-30T13:19:52;12.13;;;7.30;;
3054;SDS011;1537;52.018;8.542;2023-09-30T13:23:17;9.87;;;7.70;;
3054;SDS011;1537;52.018;8.542;2023-09-30T13:26:43;11.23;;;7.90;;
3054;SDS011;1537;52.018;8.542;2023-09-30T13:30:07;8.63;;;7.03;;
3054;SDS011;1537;52.018;8.542;2023-09-30T13:33:32;8.27;;;6.47;;
3054;SDS011;1537;52.018;8.542;2023-09-30T13:36:56;8.60;;;6.83;;
3054;SDS011;1537;52.018;8.542;2023-09-30T13:40:20;10.60;;;6.60;;
3054;SDS011;1537;52.018;8.542;2023-09-30T13:43:45;11.20;;;7.53;;
3054;SDS011;1537;52.018;8.542;2023-09-30T13:47:09;8.93;;;7.10;;
3054;SDS011;1537;52.018;8.542;2023-09-30T13:50:32;11.03;;;7.00;;
3054;SDS011;1537;52.018;8.542;2023-09-30T13:53:56;9.87;;;7.20;;
3054;SDS011;1537;52.018;8.542;2023-09-30T13:57:20;16.50;;;7.47;;
3054;SDS011;1537;52.018;8.542;2023-09-30T14:00:47;7.80;;;6.63;;
3054;SDS011;1537;52.018;8.542;2023-09-30T14:04:11;9.53;;;7.40;;
3054;SDS011;1537;52.018;8.542;2023-09-30T14:07:34;9.93;;;7.20;;
3054;SDS011;1537;52.018;8.542;2023-09-30T14:10:58;11.57;;;7.83;;
3054;SDS011;1537;52.018;8.542;2023-09-30T14:14:23;9.43;;;6.77;;
3054;SDS011;1537;52.018;8.542;2023-09-30T14:17:48;8.47;;;6.43;;
3054;SDS011;1537;52.018;8.542;2023-09-30T14:21:11;14.47;;;7.70;;
3054;SDS011;1537;52.018;8.542;2023-09-30T14:24:37;8.57;;;7.63;;
3054;SDS011;1537;52.018;8.542;2023-09-30T14:28:41;9.67;;;7.00;;
3054;SDS011;1537;52.018;8.542;2023-09-30T14:33:13;11.80;;;6.80;;
3054;SDS011;1537;52.018;8.542;2023-09-30T14:36:36;8.13;;;6.47;;
3054;SDS011;1537;52.018;8.542;2023-09-30T14:40:00;8.97;;;5.90;;
3054;SDS011;1537;52.018;8.542;2023-09-30T14:43:27;6.80;;;6.10;;
3054;SDS011;1537;52.018;8.542;2023-09-30T14:46:51;9.27;;;6.30;;
3054;SDS011;1537;52.018;8.542;2023-09-30T14:50:21;11.40;;;6.57;;
3054;SDS011;1537;52.018;8.542;2023-09-30T14:53:44;10.10;;;6.33;;
3054;SDS011;1537;52.018;8.542;2023-09-30T14:57:08;7.33;;;5.97;;
3054;SDS011;1537;52.018;8.542;2023-09-30T15:00:32;10.13;;;6.60;;
3054;SDS011;1537;52.018;8.542;2023-09-30T15:03:55;7.77;;;6.00;;
3054;SDS011;1537;52.018;8.542;2023-09-30T15:07:22;9.60;;;6.90;;
3054;SDS011;1537;52.018;8.542;2023-09-30T15:10:46;9.50;;;6.70;;
3054;SDS011;1537;52.018;8.542;2023-09-30T15:14:09;12.43;;;6.03;;
3054;SDS011;1537;52.018;8.542;2023-09-30T15:17:33;9.00;;;6.50;;
3054;SDS011;1537;52.018;8.542;2023-09-30T15:20:57;9.83;;;6.40;;
3054;SDS011;1537;52.018;8.542;2023-09-30T15:24:24;7.73;;;6.63;;
3054;SDS011;1537;52.018;8.542;2023-09-30T15:27:48;10.60;;;6.53;;
3054;SDS011;1537;52.018;8.542;2023-09-30T15:31:11;8.90;;;6.93;;
3054;SDS011;1537;52.018;8.542;2023-09-30T15:34:35;13.13;;;6.80;;
3054;SDS011;1537;52.018;8.542;2023-09-30T15:38:00;8.47;;;6.33;;
3054;SDS011;1537;52.018;8.542;2023-09-30T15:41:25;13.43;;;7.10;;
3054;SDS011;1537;52.018;8.542;2023-09-30T15:44:48;13.97;;;6.63;;
3054;SDS011;1537;52.018;8.542;2023-09-30T15:48:17;9.47;;;7.27;;
3054;SDS011;1537;52.018;8.542;2023-09-30T15:51:41;9.10;;;6.73;;
3054;SDS011;1537;52.018;8.542;2023-09-30T15:55:05;8.20;;;5.90;;
3054;SDS011;1537;52.018;8.542;2023-09-30T15:58:31;12.83;;;6.20;;
3054;SDS011;1537;52.018;8.542;2023-09-30T16:01:55;8.43;;;6.23;;
3054;SDS011;1537;52.018;8.542;2023-09-30T16:05:18;10.37;;;6.80;;
3054;SDS011;1537;52.018;8.542;2023-09-30T16:08:42;8.83;;;6.53;;
3054;SDS011;1537;52.018;8.542;2023-09-30T16:12:06;10.37;;;7.07;;
3054;SDS011;1537;52.018;8.542;2023-09-30T16:15:31;7.63;;;6.77;;
3054;SDS011;1537;52.018;8.542;2023-09-30T16:18:55;8.50;;;6.87;;
3054;SDS011;1537;52.018;8.542;2023-09-30T16:22:19;12.87;;;6.70;;
3054;SDS011;1537;52.018;8.542;2023-09-30T16:25:42;8.67;;;6.80;;
3054;SDS011;1537;52.018;8.542;2023-09-30T16:29:06;11.40;;;7.30;;
3054;SDS011;1537;52.018;8.542;2023-09-30T16:32:31;7.73;;;6.40;;
3054;SDS011;1537;52.018;8.542;2023-09-30T16:35:59;8.33;;;6.70;;
3054;SDS011;1537;52.018;8.542;2023-09-30T16:39:27;10.33;;;7.37;;
3054;SDS011;1537;52.018;8.542;2023-09-30T16:42:51;11.77;;;7.13;;
3054;SDS011;1537;52.018;8.542;2023-09-30T16:46:16;8.83;;;7.03;;
3054;SDS011;1537;52.018;8.542;2023-09-30T16:49:41;12.13;;;7.50;;
3054;SDS011;1537;52.018;8.542;2023-09-30T16:53:06;10.60;;;6.80;;
3054;SDS011;1537;52.018;8.542;2023-09-30T16:56:30;7.80;;;6.37;;
3054;SDS011;1537;52.018;8.542;2023-09-30T16:59:54;9.17;;;6.77;;
3054;SDS011;1537;52.018;8.542;2023-09-30T17:03:18;11.37;;;7.33;;
3054;SDS011;1537;52.018;8.542;2023-09-30T17:06:43;11.30;;;7.27;;
3054;SDS011;1537;52.018;8.542;2023-09-30T17:10:10;9.03;;;6.60;;
3054;SDS011;1537;52.018;8.542;2023-09-30T17:13:35;9.30;;;7.00;;
3054;SDS011;1537;52.018;8.542;2023-09-30T17:17:00;11.03;;;7.13;;
3054;SDS011;1537;52.018;8.542;2023-09-30T17:20:23;13.67;;;7.80;;
3054;SDS011;1537;52.018;8.542;2023-09-30T17:23:49;13.20;;;7.17;;
3054;SDS011;1537;52.018;8.542;2023-09-30T17:27:12;10.93;;;6.77;;
3054;SDS011;1537;52.018;8.542;2023-09-30T17:30:36;11.90;;;7.10;;
3054;SDS011;1537;52.018;8.542;2023-09-30T17:34:05;11.50;;;6.80;;
3054;SDS011;1537;52.018;8.542;2023-09-30T17:37:33;11.77;;;7.00;;
3054;SDS011;1537;52.018;8.542;2023-09-30T17:41:00;11.33;;;6.83;;
3054;SDS011;1537;52.018;8.542;2023-09-30T17:44:24;8.93;;;7.60;;
3054;SDS011;1537;52.018;8.542;2023-09-30T17:47:47;11.40;;;7.93;;
3054;SDS011;1537;52.018;8.542;2023-09-30T17:51:11;8.93;;;7.27;;
3054;SDS011;1537;52.018;8.542;2023-09-30T17:54:36;11.87;;;6.90;;
3054;SDS011;1537;52.018;8.542;2023-09-30T17:58:01;10.90;;;7.20;;
3054;SDS011;1537;52.018;8.542;2023-09-30T18:01:25;13.80;;;6.83;;
3054;SDS011;1537;52.018;8.542;2023-09-30T18:04:49;11.70;;;7.87;;
3054;SDS011;1537;52.018;8.542;2023-09-30T18:08:13;16.93;;;7.77;;
3054;SDS011;1537;52.018;8.542;2023-09-30T18:11:37;9.80;;;7.73;;
3054;SDS011;1537;52.018;8.542;2023-09-30T18:15:02;13.30;;;7.40;;
3054;SDS011;1537;52.018;8.542;2023-09-30T18:18:26;10.27;;;7.10;;
3054;SDS011;1537;52.018;8.542;2023-09-30T18:21:50;11.43;;;8.00;;
3054;SDS011;1537;52.018;8.542;2023-09-30T18:25:13;11.17;;;7.60;;
3054;SDS011;1537;52.018;8.542;2023-09-30T18:28:38;10.50;;;6.70;;
3054;SDS011;1537;52.018;8.542;2023-09-30T18:32:03;10.57;;;7.40;;
3054;SDS011;1537;52.018;8.542;2023-09-30T18:35:27;9.30;;;7.30;;
3054;SDS011;1537;52.018;8.542;2023-09-30T18:38:51;12.67;;;8.70;;
3054;SDS011;1537;52.018;8.542;2023-09-30T18:42:15;12.60;;;7.80;;
3054;SDS011;1537;52.018;8.542;2023-09-30T18:45:39;9.90;;;8.30;;
3054;SDS011;1537;52.018;8.542;2023-09-30T18:49:04;10.50;;;7.97;;
3054;SDS011;1537;52.018;8.542;2023-09-30T18:52:29;11.90;;;8.70;;
3054;SDS011;1537;52.018;8.542;2023-09-30T18:55:53;11.07;;;8.60;;
3054;SDS011;1537;52.018;8.542;2023-09-30T18:59:18;9.67;;;7.60;;
3054;SDS011;1537;52.018;8.542;2023-09-30T19:02:43;13.57;;;8.27;;
3054;SDS011;1537;52.018;8.542;2023-09-30T19:06:09;10.83;;;8.37;;
3054;SDS011;1537;52.018;8.542;2023-09-30T19:09:32;11.13;;;7.60;;
3054;SDS011;1537;52.018;8.542;2023-09-30T19:12:56;13.10;;;8.60;;
3054;SDS011;1537;52.018;8.542;2023-09-30T19:16:20;10.53;;;8.10;;
3054;SDS011;1537;52.018;8.542;2023-09-30T19:19:44;13.43;;;9.20;;
3054;SDS011;1537;52.018;8.542;2023-09-30T19:23:09;13.13;;;8.13;;
3054;SDS011;1537;52.018;8.542;2023-09-30T19:26:33;11.97;;;8.57;;
3054;SDS011;1537;52.018;8.542;2023-09-30T19:29:56;12.60;;;9.33;;
3054;SDS011;1537;52.018;8.542;2023-09-30T19:33:20;14.67;;;8.40;;
3054;SDS011;1537;52.018;8.542;2023-09-30T19:36:44;13.57;;;10.50;;
3054;SDS011;1537;52.018;8.542;2023-09-30T19:40:11;12.53;;;8.70;;
3054;SDS011;1537;52.018;8.542;2023-09-30T19:43:35;9.80;;;7.80;;
3054;SDS011;1537;52.018;8.542;2023-09-30T19:46:59;11.60;;;8.80;;
3054;SDS011;1537;52.018;8.542;2023-09-30T19:50:23;11.73;;;8.93;;
3054;SDS011;1537;52.018;8.542;2023-09-30T19:53:49;10.50;;;8.07;;
3054;SDS011;1537;52.018;8.542;2023-09-30T19:57:21;11.10;;;8.60;;
3054;SDS011;1537;52.018;8.542;2023-09-30T20:00:49;11.20;;;8.50;;
3054;SDS011;1537;52.018;8.542;2023-09-30T20:04:17;13.50;;;9.07;;
3054;SDS011;1537;52.018;8.542;2023-09-30T20:07:52;17.77;;;11.10;;
3054;SDS011;1537;52.018;8.542;2023-09-30T20:11:17;16.87;;;10.17;;
3054;SDS011;1537;52.018;8.542;2023-09-30T20:14:50;12.97;;;9.63;;
3054;SDS011;1537;52.018;8.542;2023-09-30T20:18:18;12.60;;;9.20;;
3054;SDS011;1537;52.018;8.542;2023-09-30T20:21:47;12.93;;;8.87;;
3054;SDS011;1537;52.018;8.542;2023-09-30T20:25:14;15.50;;;9.40;;
3054;SDS011;1537;52.018;8.542;2023-09-30T20:28:43;10.03;;;8.27;;
3054;SDS011;1537;52.018;8.542;2023-09-30T20:32:11;11.60;;;8.57;;
3054;SDS011;1537;52.018;8.542;2023-09-30T20:35:41;11.23;;;8.37;;
3054;SDS011;1537;52.018;8.542;2023-09-30T20:39:06;14.33;;;8.70;;
3054;SDS011;1537;52.018;8.542;2023-09-30T20:42:32;15.40;;;9.60;;
3054;SDS011;1537;52.018;8.542;2023-09-30T20:46:00;11.70;;;8.53;;
3054;SDS011;1537;52.018;8.542;2023-09-30T20:49:30;15.53;;;8.73;;
3054;SDS011;1537;52.018;8.542;2023-09-30T20:52:57;13.60;;;8.93;;
3054;SDS011;1537;52.018;8.542;2023-09-30T20:56:22;14.53;;;8.93;;
3054;SDS011;1537;52.018;8.542;2023-09-30T20:59:46;11.13;;;9.20;;
3054;SDS011;1537;52.018;8.542;2023-09-30T21:03:10;11.13;;;8.13;;
3054;SDS011;1537;52.018;8.542;2023-09-30T21:06:35;14.07;;;9.77;;
3054;SDS011;1537;52.018;8.542;2023-09-30T21:09:59;11.53;;;9.30;;